Orbital elements of COSMOS 970 DEB
| Launched | 20 December 1977 |
| Flight ended | – |
| Launch site | Tyuratam Missile and Space Center, Kazakhstan (Also known as Baikonur Cosmodrome) |
| Owner | Commonwealth of Independent States (former USSR) |
| NORAD ID | 64988 |
| Date fetched |
Epoch osculation |
Inc. [°] |
Ecc. | RA asc node [hr] |
Arg Peri. [°] |
Mean anom [°] |
Mean motion [rev/day] |
Abs. mag |
| Date fetched |
Epoch osculation |
Inc. [°] |
Ecc. | RA asc node [hr] |
Arg Peri. [°] |
Mean anom [°] |
Mean motion [rev/day] |
Abs. mag |
| 2026 May 03 17:57 | 2026 Apr 29 09:28:33 | 65.8547 | 0.01088 | 11.3592 | 176.0519 | 202.5071 | 13.66391 | – |
| 2026 May 02 17:57 | 2026 Apr 29 09:28:33 | 65.8547 | 0.01088 | 11.3592 | 176.0519 | 202.5071 | 13.66391 | – |
| 2026 May 01 17:56 | 2026 Apr 29 09:28:33 | 65.8547 | 0.01088 | 11.3592 | 176.0519 | 202.5071 | 13.66391 | – |
| 2026 Apr 30 17:56 | 2026 Apr 29 09:28:33 | 65.8547 | 0.01088 | 11.3592 | 176.0519 | 202.5071 | 13.66391 | – |
| 2026 Apr 29 17:57 | 2026 Apr 22 23:40:28 | 65.8557 | 0.01094 | 12.3986 | 179.0908 | 202.5071 | 13.66391 | – |
| 2026 Apr 28 17:56 | 2026 Apr 22 23:40:28 | 65.8557 | 0.01094 | 12.3986 | 179.0908 | 202.5071 | 13.66391 | – |
| 2026 Apr 27 17:58 | 2026 Apr 22 23:40:28 | 65.8557 | 0.01094 | 12.3986 | 179.0908 | 202.5071 | 13.66391 | – |
| 2026 Apr 26 17:58 | 2026 Apr 22 23:40:28 | 65.8557 | 0.01094 | 12.3986 | 179.0908 | 202.5071 | 13.66391 | – |
| 2026 Apr 25 17:58 | 2026 Apr 22 23:40:28 | 65.8557 | 0.01094 | 12.3986 | 179.0908 | 202.5071 | 13.66391 | – |
| 2026 Apr 24 17:59 | 2026 Apr 22 23:40:28 | 65.8557 | 0.01094 | 12.3986 | 179.0908 | 202.5071 | 13.66391 | – |
| 2026 Apr 23 17:57 | 2026 Apr 16 00:48:07 | 65.8559 | 0.01099 | 13.5263 | 182.3676 | 202.5071 | 13.66391 | – |
| 2026 Apr 22 17:57 | 2026 Apr 16 00:48:07 | 65.8559 | 0.01099 | 13.5263 | 182.3676 | 202.5071 | 13.66391 | – |
| 2026 Apr 21 17:57 | 2026 Apr 16 00:48:07 | 65.8559 | 0.01099 | 13.5263 | 182.3676 | 202.5071 | 13.66391 | – |
| 2026 Apr 20 17:57 | 2026 Apr 16 00:48:07 | 65.8559 | 0.01099 | 13.5263 | 182.3676 | 202.5071 | 13.66391 | – |
| 2026 Apr 19 17:58 | 2026 Apr 16 00:48:07 | 65.8559 | 0.01099 | 13.5263 | 182.3676 | 202.5071 | 13.66391 | – |
| 2026 Apr 18 17:56 | 2026 Apr 12 01:56:16 | 65.8560 | 0.01102 | 14.1674 | 184.2197 | 202.5071 | 13.66391 | – |
| 2026 Apr 16 17:57 | 2026 Apr 12 01:56:16 | 65.8560 | 0.01102 | 14.1674 | 184.2197 | 202.5071 | 13.66391 | – |
| 2026 Apr 14 17:57 | 2026 Apr 12 01:56:16 | 65.8560 | 0.01102 | 14.1674 | 184.2197 | 202.5071 | 13.66391 | – |
| 2026 Apr 13 17:57 | 2026 Apr 12 01:56:16 | 65.8560 | 0.01102 | 14.1674 | 184.2197 | 202.5071 | 13.66391 | – |
| 2026 Apr 12 17:57 | 2026 Apr 06 15:10:35 | 65.8554 | 0.01106 | 15.0510 | 186.7561 | 202.5071 | 13.66391 | – |
| 2026 Apr 11 17:57 | 2026 Apr 06 15:10:35 | 65.8554 | 0.01106 | 15.0510 | 186.7561 | 202.5071 | 13.66391 | – |
| 2026 Apr 10 17:58 | 2026 Apr 06 15:10:35 | 65.8554 | 0.01106 | 15.0510 | 186.7561 | 202.5071 | 13.66391 | – |
| 2026 Apr 09 18:01 | 2026 Apr 06 15:10:35 | 65.8554 | 0.01106 | 15.0510 | 186.7561 | 202.5071 | 13.66391 | – |
| 2026 Apr 08 17:57 | 2026 Apr 06 15:10:35 | 65.8554 | 0.01106 | 15.0510 | 186.7561 | 202.5071 | 13.66391 | – |
| 2026 Apr 07 17:57 | 2026 Apr 01 15:42:00 | 65.8550 | 0.01109 | 15.8585 | 189.0845 | 202.5071 | 13.66391 | – |
| 2026 Apr 06 17:57 | 2026 Apr 01 15:42:00 | 65.8550 | 0.01109 | 15.8585 | 189.0845 | 202.5071 | 13.66391 | – |